Terminal Aerodrome Forecast
Issued by NWS

Home | Current Version | Previous Version | Text Only | Print | Product List | Glossary On
Versions: 1 2 3 4 5 6 7 8 9 10 11 12 13 14
668
FTUS44 KCRP 291732
TAFLRD
TAF
KLRD 291732Z 2918/3018 12015G25KT P6SM BKN035
     FM300200 13010KT P6SM SCT025
     FM301000 12006KT P6SM OVC025
     FM301400 14012G18KT P6SM SCT025=

USA.gov is the U.S. government's official web portal to all federal, state and local government web resources and services.